South China, Maine
Current Conditions -  °F | °C
As of 8:35 AM on Sunday 23 Nov 2014 (Local Time) from KWVL Reporting Station
Clear Clear  
Wind Chill: 37°   Ceiling: Unl
Heat Index: 37°   Visibility: 10mi
Dew Point: 25°   Wind: 3mph
Humidity: 60%   Direction: 210°SSW
Pressure: 30"   Gusts: NA
Location:  44.4°N, 69.57°W
Report Text: KWVL 231335Z 21003KT 10SM CLR 03/M04 A3000 RMK AO1
Loading
Personal Weather Stations






























Interactive Weather Map New forecast layout! Learn more

10-Day Weather Forecast

Advertisements
Track Severe Weather on mobile